Niwot, Colorado
Current Conditions -  °F | °C
As of 4:33 AM on Friday 31 Oct 2014 (Local Time) from KLMO Reporting Station
Clear Clear  
Wind Chill: 31°   Ceiling: Unl
Heat Index: 37°   Visibility: 10mi
Dew Point: 30°   Wind: 9mph
Humidity: 74%   Direction: 360°N
Pressure: 30.36"   Gusts: NA
Location:  40.1°N, 105.17°W
Report Text: KLMO 311033Z AUTO 36008KT 10SM CLR 03/M01 A3036 RMK AO2 T00301012
Loading
Personal Weather Stations






























Interactive Weather Map
Tropical Storm Tracking
New forecast layout! Learn more

10-Day Weather Forecast

Advertisements
Track Severe Weather on mobile